createdAt,value
2023-04-08T00:01:45.618Z,81.60
2023-04-08T00:04:19.898Z,81.82
2023-04-08T00:06:52.196Z,81.82
2023-04-08T00:09:24.612Z,82.18
2023-04-08T00:12:05.222Z,82.99
2023-04-08T00:14:38.272Z,82.28
2023-04-08T00:17:10.601Z,82.49
2023-04-08T00:19:43.060Z,83.01
2023-04-08T00:22:15.378Z,83.20
2023-04-08T00:24:47.698Z,83.57
2023-04-08T00:27:20.074Z,83.79
2023-04-08T00:29:53.050Z,84.05
2023-04-08T00:32:25.445Z,84.16
2023-04-08T00:34:58.454Z,84.42
2023-04-08T00:37:31.131Z,84.73
2023-04-08T00:40:03.684Z,84.45
2023-04-08T00:42:36.052Z,85.25
2023-04-08T00:45:10.488Z,85.53
2023-04-08T00:47:43.435Z,85.23
2023-04-08T00:50:16.018Z,85.80
2023-04-08T00:52:48.311Z,85.82
2023-04-08T00:55:20.686Z,85.91
2023-04-08T00:57:53.598Z,85.67
2023-04-08T01:00:28.780Z,85.20
2023-04-08T01:03:08.964Z,85.53
2023-04-08T01:05:53.083Z,87.00
2023-04-08T01:08:29.236Z,86.65
2023-04-08T01:11:03.870Z,86.70
2023-04-08T01:13:40.145Z,86.04
2023-04-08T01:16:15.352Z,87.17
2023-04-08T01:18:50.979Z,86.95
2023-04-08T01:21:25.021Z,86.97
2023-04-08T01:24:06.406Z,87.15
2023-04-08T01:26:41.198Z,86.24
2023-04-08T01:29:15.545Z,85.17
2023-04-08T01:31:48.665Z,85.15
2023-04-08T01:34:22.103Z,85.48
2023-04-08T01:36:57.975Z,85.28
2023-04-08T01:39:31.321Z,84.60
2023-04-08T01:42:05.233Z,84.77
2023-04-08T01:44:39.971Z,84.78
2023-04-08T01:47:13.328Z,84.83
2023-04-08T01:49:46.422Z,84.87
2023-04-08T01:52:20.766Z,85.28
2023-04-08T01:54:53.169Z,85.31
2023-04-08T01:57:31.623Z,85.43
2023-04-08T02:00:08.014Z,84.79
2023-04-08T02:02:53.164Z,85.08
2023-04-08T02:05:25.788Z,86.00
2023-04-08T02:07:58.085Z,86.27
2023-04-08T02:10:30.449Z,86.39
2023-04-08T02:13:03.538Z,86.10
2023-04-08T02:15:41.766Z,86.47
2023-04-08T02:18:16.759Z,85.43
2023-04-08T02:20:57.269Z,85.69
2023-04-08T02:23:33.097Z,85.32
2023-04-08T02:26:08.335Z,85.34
2023-04-08T02:28:42.614Z,86.86
2023-04-08T02:31:17.411Z,86.18
2023-04-08T02:33:52.549Z,86.16
2023-04-08T02:36:26.718Z,85.89
2023-04-08T02:38:59.092Z,85.56
2023-04-08T02:41:31.551Z,85.56
2023-04-08T02:44:04.607Z,86.18
2023-04-08T02:46:36.931Z,86.50
2023-04-08T02:49:09.222Z,85.79
2023-04-08T02:51:42.139Z,86.24
2023-04-08T02:54:14.807Z,86.53
2023-04-08T02:56:47.092Z,86.72
2023-04-08T02:59:20.057Z,86.25
2023-04-08T03:01:52.435Z,86.43
2023-04-08T03:04:24.766Z,86.19
2023-04-08T03:06:57.103Z,86.93
2023-04-08T03:09:29.471Z,87.27
2023-04-08T03:12:01.895Z,87.80
2023-04-08T03:14:34.848Z,88.06
2023-04-08T03:17:07.180Z,88.06
2023-04-08T03:19:39.429Z,88.79
2023-04-08T03:22:13.660Z,88.94
2023-04-08T03:24:45.963Z,88.69
2023-04-08T03:27:18.294Z,88.93
2023-04-08T03:29:52.347Z,88.02
2023-04-08T03:32:24.951Z,88.07
2023-04-08T03:34:57.278Z,88.01
2023-04-08T03:37:29.729Z,88.38
2023-04-08T03:40:02.168Z,87.83
2023-04-08T03:42:34.520Z,88.00
2023-04-08T03:45:08.448Z,88.20
2023-04-08T03:47:41.222Z,88.62
2023-04-08T03:50:13.626Z,89.44
2023-04-08T03:52:46.143Z,88.67
2023-04-08T03:55:18.408Z,87.42
2023-04-08T03:57:50.719Z,88.08
2023-04-08T04:00:23.890Z,87.24
2023-04-08T04:02:56.489Z,87.11
2023-04-08T04:05:28.906Z,86.02
2023-04-08T04:08:01.387Z,86.01
2023-04-08T04:10:33.736Z,86.78
2023-04-08T04:13:06.056Z,86.42
2023-04-08T04:15:39.430Z,86.50
2023-04-08T04:18:11.906Z,86.87
2023-04-08T04:20:44.528Z,86.73
2023-04-08T04:23:16.851Z,87.01
2023-04-08T04:25:49.183Z,88.13
2023-04-08T04:28:21.441Z,88.06
2023-04-08T04:30:56.333Z,88.33
2023-04-08T04:33:28.972Z,88.55
2023-04-08T04:36:01.370Z,88.52
2023-04-08T04:38:33.728Z,88.16
2023-04-08T04:41:06.393Z,88.21
2023-04-08T04:43:38.679Z,88.89
2023-04-08T04:46:11.677Z,88.83
2023-04-08T04:48:44.217Z,88.79
2023-04-08T04:51:16.500Z,87.97
2023-04-08T04:53:49.364Z,89.12
2023-04-08T04:56:21.738Z,87.72
2023-04-08T04:58:54.049Z,86.55
2023-04-08T05:01:28.244Z,85.53
2023-04-08T05:04:00.944Z,85.92
2023-04-08T05:06:33.428Z,85.49
2023-04-08T05:09:05.793Z,85.35
2023-04-08T05:11:38.145Z,85.34
2023-04-08T05:14:10.488Z,86.02
2023-04-08T05:16:43.453Z,87.04
2023-04-08T05:19:15.743Z,88.11
2023-04-08T05:21:48.047Z,87.72
2023-04-08T05:24:20.358Z,87.99
2023-04-08T05:26:52.716Z,87.97
2023-04-08T05:29:25.146Z,88.07
2023-04-08T05:31:58.780Z,88.87
2023-04-08T05:34:31.600Z,88.00
2023-04-08T05:37:03.911Z,87.84
2023-04-08T05:39:36.433Z,88.61
2023-04-08T05:42:09.088Z,88.06
2023-04-08T05:44:43.170Z,87.34
2023-04-08T05:47:16.103Z,85.86
2023-04-08T05:49:50.218Z,84.68
2023-04-08T05:52:23.559Z,84.57
2023-04-08T05:54:55.831Z,83.42
2023-04-08T05:57:28.157Z,83.17
2023-04-08T06:00:00.484Z,83.00
2023-04-08T06:02:33.909Z,82.20
2023-04-08T06:05:06.872Z,80.88
2023-04-08T06:07:39.288Z,79.12
2023-04-08T06:10:11.713Z,79.97
2023-04-08T06:12:44.082Z,81.62
2023-04-08T06:15:16.511Z,81.37
2023-04-08T06:17:49.472Z,82.55
2023-04-08T06:20:21.791Z,82.85
2023-04-08T06:22:54.114Z,83.04
2023-04-08T06:25:26.636Z,81.59
2023-04-08T06:27:58.902Z,81.75
2023-04-08T06:30:31.271Z,80.48
2023-04-08T06:33:04.391Z,79.65
2023-04-08T06:35:37.124Z,79.69
2023-04-08T06:38:09.496Z,79.60
2023-04-08T06:40:41.935Z,77.95
2023-04-08T06:43:14.202Z,77.35
2023-04-08T06:45:46.739Z,78.12
2023-04-08T06:48:20.032Z,77.67
2023-04-08T06:50:52.315Z,78.35
2023-04-08T06:53:25.257Z,79.79
2023-04-08T06:55:57.563Z,79.56
2023-04-08T06:58:30.199Z,79.88
2023-04-08T07:01:02.701Z,80.97
2023-04-08T07:03:35.707Z,80.83
2023-04-08T07:06:08.064Z,81.13
2023-04-08T07:08:40.391Z,81.84
2023-04-08T07:11:12.676Z,81.61
2023-04-08T07:13:45.008Z,82.43
2023-04-08T07:16:17.345Z,81.40
2023-04-08T07:18:51.119Z,80.71
2023-04-08T07:21:23.522Z,80.59
2023-04-08T07:23:55.897Z,79.49
2023-04-08T07:26:28.248Z,80.04
2023-04-08T07:29:00.941Z,79.76
2023-04-08T07:31:33.389Z,77.27
2023-04-08T07:34:06.347Z,77.37
2023-04-08T07:36:38.637Z,77.68
2023-04-08T07:39:10.974Z,77.20
2023-04-08T07:41:43.368Z,77.02
2023-04-08T07:44:16.561Z,76.83
2023-04-08T07:46:50.925Z,74.61
2023-04-08T07:49:23.904Z,74.66
2023-04-08T07:51:56.846Z,75.32
2023-04-08T07:54:31.192Z,76.54
2023-04-08T07:57:03.592Z,76.53
2023-04-08T07:59:36.243Z,77.59
2023-04-08T08:02:08.694Z,78.96
2023-04-08T08:04:41.842Z,78.05
2023-04-08T08:07:14.486Z,78.90
2023-04-08T08:09:46.768Z,78.70
2023-04-08T08:12:19.120Z,76.81
2023-04-08T08:14:54.099Z,74.96
2023-04-08T08:17:29.446Z,76.43
2023-04-08T08:20:04.236Z,75.35
2023-04-08T08:22:47.137Z,74.95
2023-04-08T08:25:28.853Z,75.67
2023-04-08T08:28:01.439Z,73.98
2023-04-08T08:30:34.185Z,73.39
2023-04-08T08:33:06.646Z,73.17
2023-04-08T08:35:39.660Z,74.01
2023-04-08T08:38:13.126Z,73.76
2023-04-08T08:40:45.554Z,74.42
2023-04-08T08:43:18.041Z,75.54
2023-04-08T08:45:50.571Z,74.57
2023-04-08T08:48:23.073Z,74.40
2023-04-08T08:50:56.074Z,75.02
2023-04-08T08:53:30.377Z,75.64
2023-04-08T08:58:38.874Z,75.45
2023-04-08T09:01:30.989Z,75.23
2023-04-08T09:04:13.264Z,73.90
2023-04-08T09:06:47.073Z,76.41
2023-04-08T09:09:20.797Z,73.97
2023-04-08T09:12:03.477Z,72.42
2023-04-08T09:14:35.813Z,72.39
2023-04-08T09:17:08.244Z,70.79
2023-04-08T09:20:05.797Z,72.35
2023-04-08T09:22:58.585Z,70.37
2023-04-08T09:25:32.154Z,71.13
2023-04-08T09:28:04.863Z,69.52
2023-04-08T09:30:37.201Z,69.88
2023-04-08T09:33:09.548Z,67.77
2023-04-08T09:35:43.066Z,67.14
2023-04-08T09:38:16.580Z,67.16
2023-04-08T09:40:49.151Z,66.90
2023-04-08T09:43:24.713Z,66.18
2023-04-08T09:46:00.967Z,64.87
2023-04-08T09:48:42.650Z,63.46
2023-04-08T09:51:16.291Z,62.69
2023-04-08T09:53:55.632Z,61.54
2023-04-08T09:56:38.918Z,63.67
2023-04-08T09:59:16.639Z,60.54
2023-04-08T10:01:53.184Z,61.08
2023-04-08T10:04:27.629Z,60.03
2023-04-08T10:07:04.691Z,61.01
2023-04-08T10:09:38.347Z,60.80
2023-04-08T10:12:10.676Z,60.71
2023-04-08T10:15:17.898Z,61.15
2023-04-08T10:17:50.926Z,60.12
2023-04-08T10:20:43.114Z,62.12
2023-04-08T10:23:17.202Z,63.48
2023-04-08T10:25:50.146Z,60.37
2023-04-08T10:28:26.488Z,58.05
2023-04-08T10:30:58.823Z,58.62
2023-04-08T10:33:32.892Z,57.55
2023-04-08T10:36:12.755Z,58.87
2023-04-08T10:38:46.602Z,60.61
2023-04-08T10:41:24.445Z,57.08
2023-04-08T10:43:56.819Z,56.66
2023-04-08T10:46:29.301Z,58.76
2023-04-08T10:49:01.942Z,57.33
2023-04-08T10:51:34.849Z,56.70
2023-04-08T10:54:07.915Z,57.67
2023-04-08T10:56:48.895Z,60.50
2023-04-08T10:59:28.312Z,59.44
2023-04-08T11:02:13.515Z,57.42
2023-04-08T11:04:47.608Z,57.00
2023-04-08T11:07:20.433Z,57.56
2023-04-08T11:09:52.722Z,57.41
2023-04-08T11:12:26.562Z,57.47
2023-04-08T11:14:58.929Z,54.53
2023-04-08T11:17:33.950Z,56.91
2023-04-08T11:20:08.834Z,56.47
2023-04-08T11:22:41.316Z,56.33
2023-04-08T11:25:14.242Z,55.81
2023-04-08T11:27:49.721Z,53.43
2023-04-08T11:30:23.362Z,54.57
2023-04-08T11:32:57.254Z,54.55
2023-04-08T11:35:30.199Z,54.39
2023-04-08T11:38:04.914Z,54.82
2023-04-08T11:40:37.356Z,56.87
2023-04-08T11:43:11.385Z,53.53
2023-04-08T11:45:43.792Z,52.73
2023-04-08T11:48:17.323Z,51.00
2023-04-08T11:51:03.209Z,52.17
2023-04-08T11:53:37.010Z,51.83
2023-04-08T11:56:16.707Z,50.17
2023-04-08T11:58:49.534Z,47.33
2023-04-08T12:01:21.781Z,49.33
2023-04-08T12:03:58.849Z,50.79
2023-04-08T12:06:31.796Z,48.87
2023-04-08T12:09:04.423Z,48.72
2023-04-08T12:11:36.722Z,49.28
2023-04-08T12:14:10.089Z,50.77
2023-04-08T12:16:42.729Z,50.39
2023-04-08T12:19:15.472Z,49.68
2023-04-08T12:21:47.734Z,49.29
2023-04-08T12:24:20.431Z,45.93
2023-04-08T12:26:52.691Z,47.44
2023-04-08T12:29:25.628Z,50.81
2023-04-08T12:31:58.212Z,51.08
2023-04-08T12:34:30.834Z,51.48
2023-04-08T12:37:03.219Z,52.59
2023-04-08T12:39:35.602Z,53.81
2023-04-08T12:42:08.388Z,54.00
2023-04-08T12:44:41.512Z,54.57
2023-04-08T12:47:13.793Z,56.25
2023-04-08T12:49:49.779Z,55.62
2023-04-08T12:52:23.487Z,54.11
2023-04-08T12:54:55.966Z,54.92
2023-04-08T12:57:28.323Z,55.44
2023-04-08T13:00:01.645Z,52.32
2023-04-08T13:02:34.109Z,50.03
2023-04-08T13:05:06.767Z,52.58
2023-04-08T13:07:39.102Z,50.99
2023-04-08T13:10:11.407Z,51.47
2023-04-08T13:12:43.770Z,52.69
2023-04-08T13:15:16.836Z,52.56
2023-04-08T13:17:49.166Z,53.48
2023-04-08T13:20:25.001Z,52.15
2023-04-08T13:22:57.365Z,55.50
2023-04-08T13:25:29.782Z,57.20
2023-04-08T13:28:02.632Z,56.21
2023-04-08T13:30:35.687Z,54.10
2023-04-08T13:33:08.035Z,53.40
2023-04-08T13:35:40.620Z,54.86
2023-04-08T13:38:13.145Z,53.83
2023-04-08T13:40:46.704Z,51.87
2023-04-08T13:43:20.529Z,51.66
2023-04-08T13:45:53.880Z,53.56
2023-04-08T13:48:26.420Z,54.01
2023-04-08T13:50:58.878Z,54.24
2023-04-08T13:53:31.641Z,56.05
2023-04-08T13:56:04.406Z,54.63
2023-04-08T13:58:37.128Z,54.87
2023-04-08T14:01:10.876Z,54.31
2023-04-08T14:03:43.825Z,56.14
2023-04-08T14:06:16.833Z,56.15
2023-04-08T14:08:50.157Z,55.88
2023-04-08T14:11:23.634Z,55.37
2023-04-08T14:13:56.684Z,55.73
2023-04-08T14:16:32.092Z,54.86
2023-04-08T14:19:04.773Z,54.80
2023-04-08T14:21:38.468Z,55.71
2023-04-08T14:24:10.988Z,55.63
2023-04-08T14:26:43.449Z,55.22
2023-04-08T14:29:15.963Z,56.56
2023-04-08T14:31:49.736Z,55.65
2023-04-08T14:34:22.991Z,54.00
2023-04-08T14:36:55.864Z,54.09
2023-04-08T14:39:28.430Z,55.14
2023-04-08T14:42:01.798Z,56.46
2023-04-08T14:44:34.615Z,56.55
2023-04-08T14:47:08.056Z,57.37
2023-04-08T14:49:40.711Z,58.88
2023-04-08T14:52:13.500Z,60.11
2023-04-08T14:54:47.690Z,60.48
2023-04-08T14:57:20.240Z,59.14
2023-04-08T14:59:52.841Z,61.07
2023-04-08T15:02:27.100Z,62.83
2023-04-08T15:04:59.855Z,61.96
2023-04-08T15:07:32.825Z,61.50
2023-04-08T15:10:06.939Z,61.17
2023-04-08T15:12:40.222Z,61.58
2023-04-08T15:15:13.244Z,62.49
2023-04-08T15:17:46.879Z,64.33
2023-04-08T15:20:19.587Z,65.11
2023-04-08T15:22:52.365Z,65.12
2023-04-08T15:25:25.358Z,64.24
2023-04-08T15:27:57.865Z,65.82
2023-04-08T15:30:34.595Z,62.77
2023-04-08T15:33:08.169Z,60.58
2023-04-08T15:35:41.049Z,60.92
2023-04-08T15:38:13.573Z,61.34
2023-04-08T15:40:48.062Z,62.12
2023-04-08T15:43:20.830Z,61.83
2023-04-08T15:45:53.310Z,60.99
2023-04-08T15:48:26.358Z,60.84
2023-04-08T15:50:58.801Z,62.12
2023-04-08T15:53:31.999Z,63.29
2023-04-08T15:56:04.997Z,64.19
2023-04-08T15:58:37.443Z,65.07
2023-04-08T16:01:10.068Z,67.40
2023-04-08T16:03:43.306Z,67.71
2023-04-08T16:06:15.888Z,68.01
2023-04-08T16:08:49.419Z,71.37
2023-04-08T16:11:23.194Z,74.77
2023-04-08T16:13:55.534Z,82.04
2023-04-08T16:16:28.228Z,82.74
2023-04-08T16:19:01.625Z,83.96
2023-04-08T16:21:34.343Z,86.50
2023-04-08T16:24:07.381Z,89.60
2023-04-08T16:26:40.828Z,92.71
2023-04-08T16:29:13.280Z,94.86
2023-04-08T16:31:46.451Z,95.42
2023-04-08T16:34:19.633Z,99.22
2023-04-08T16:36:52.850Z,98.08
2023-04-08T16:39:25.614Z,100.00
2023-04-08T16:41:59.056Z,100.00
2023-04-08T16:44:31.791Z,100.00
2023-04-08T16:47:05.040Z,100.00
2023-04-08T16:49:38.238Z,100.00
2023-04-08T16:52:10.571Z,100.00
2023-04-08T16:54:44.606Z,100.00
2023-04-08T16:57:18.242Z,100.00
2023-04-08T16:59:51.559Z,100.00
2023-04-08T17:02:25.090Z,100.00
2023-04-08T17:04:59.292Z,100.00
2023-04-08T17:07:32.863Z,100.00
2023-04-08T17:10:06.815Z,100.00
2023-04-08T17:12:39.797Z,100.00
2023-04-08T17:15:12.385Z,100.00
2023-04-08T17:17:45.589Z,100.00
2023-04-08T17:20:20.002Z,100.00
2023-04-08T17:22:52.616Z,100.00
2023-04-08T17:25:25.834Z,100.00
2023-04-08T17:27:58.400Z,100.00
2023-04-08T17:30:30.875Z,100.00
2023-04-08T17:33:04.186Z,100.00
2023-04-08T17:35:37.675Z,100.00
2023-04-08T17:38:10.421Z,100.00
2023-04-08T17:40:43.638Z,100.00
2023-04-08T17:43:17.939Z,100.00
2023-04-08T17:45:51.650Z,100.00
2023-04-08T17:48:24.202Z,100.00
2023-04-08T17:51:02.730Z,100.00
2023-04-08T17:53:35.519Z,100.00
2023-04-08T17:56:07.961Z,100.00
2023-04-08T17:58:41.120Z,100.00
2023-04-08T18:01:14.631Z,100.00
2023-04-08T18:03:47.931Z,100.00
2023-04-08T18:06:22.059Z,100.00
2023-04-08T18:08:54.647Z,100.00
2023-04-08T18:11:27.007Z,100.00
2023-04-08T18:13:59.450Z,100.00
2023-04-08T18:16:32.732Z,100.00
2023-04-08T18:19:06.264Z,100.00
2023-04-08T18:21:39.497Z,100.00
2023-04-08T18:24:12.736Z,100.00
2023-04-08T18:26:49.150Z,100.00
2023-04-08T18:29:26.774Z,100.00
2023-04-08T18:31:59.119Z,100.00
2023-04-08T18:34:31.792Z,100.00
2023-04-08T18:37:07.188Z,100.00
2023-04-08T18:39:40.335Z,100.00
2023-04-08T18:42:12.727Z,100.00
2023-04-08T18:44:45.064Z,100.00
2023-04-08T18:47:18.075Z,100.00
2023-04-08T18:49:51.096Z,100.00
2023-04-08T18:52:25.044Z,100.00
2023-04-08T18:55:00.050Z,100.00
2023-04-08T18:57:34.731Z,100.00
2023-04-08T19:00:09.222Z,100.00
2023-04-08T19:02:42.038Z,100.00
2023-04-08T19:05:14.932Z,100.00
2023-04-08T19:07:48.273Z,100.00
2023-04-08T19:10:22.501Z,100.00
2023-04-08T19:12:55.209Z,100.00
2023-04-08T19:15:28.674Z,100.00
2023-04-08T19:18:01.550Z,100.00
2023-04-08T19:20:34.736Z,100.00
2023-04-08T19:23:08.433Z,100.00
2023-04-08T19:25:41.591Z,100.00
2023-04-08T19:28:14.091Z,100.00
2023-04-08T19:30:47.670Z,100.00
2023-04-08T19:33:23.698Z,100.00
2023-04-08T19:35:57.119Z,100.00
2023-04-08T19:38:30.937Z,100.00
2023-04-08T19:41:05.560Z,100.00
2023-04-08T19:43:38.753Z,100.00
2023-04-08T19:46:12.209Z,100.00
2023-04-08T19:48:45.695Z,100.00
2023-04-08T19:51:22.615Z,100.00
2023-04-08T19:53:55.848Z,100.00
2023-04-08T19:56:33.203Z,100.00
2023-04-08T19:59:06.107Z,100.00
2023-04-08T20:01:39.899Z,100.00
2023-04-08T20:04:12.602Z,100.00
2023-04-08T20:06:46.020Z,100.00
2023-04-08T20:09:19.957Z,100.00
2023-04-08T20:11:53.251Z,100.00
2023-04-08T20:14:27.166Z,100.00
2023-04-08T20:17:00.475Z,100.00
2023-04-08T20:19:33.078Z,100.00
2023-04-08T20:22:12.710Z,100.00
2023-04-08T20:24:47.862Z,100.00
2023-04-08T20:27:23.243Z,100.00
2023-04-08T20:29:56.251Z,100.00
2023-04-08T20:32:29.715Z,100.00
2023-04-08T20:35:03.053Z,100.00
2023-04-08T20:37:36.732Z,100.00
2023-04-08T20:40:11.202Z,100.00
2023-04-08T20:42:44.543Z,100.00
2023-04-08T20:45:17.107Z,100.00
2023-04-08T20:47:50.084Z,100.00
2023-04-08T20:50:22.600Z,100.00
2023-04-08T20:52:55.041Z,100.00
2023-04-08T20:55:28.850Z,100.00
2023-04-08T20:58:04.944Z,100.00
2023-04-08T21:00:37.766Z,100.00
2023-04-08T21:03:39.080Z,100.00
2023-04-08T21:07:18.494Z,100.00
2023-04-08T21:14:13.043Z,100.00
2023-04-08T21:17:39.516Z,100.00
2023-04-08T21:21:18.219Z,100.00
2023-04-08T21:24:58.284Z,100.00
2023-04-08T21:27:41.971Z,100.00
2023-04-08T21:30:58.712Z,100.00
2023-04-08T21:34:01.807Z,100.00
2023-04-08T21:36:59.440Z,100.00
2023-04-08T21:40:06.686Z,100.00
2023-04-08T21:48:59.312Z,100.00
2023-04-08T21:55:09.285Z,100.00
2023-04-08T21:57:41.985Z,100.00
2023-04-08T22:00:14.555Z,100.00
2023-04-08T22:02:51.742Z,100.00
2023-04-08T22:05:24.919Z,100.00
2023-04-08T22:07:57.486Z,100.00
2023-04-08T22:10:29.961Z,100.00
2023-04-08T22:13:02.388Z,100.00
2023-04-08T22:15:34.658Z,100.00
2023-04-08T22:18:06.931Z,100.00
2023-04-08T22:20:39.913Z,100.00
2023-04-08T22:23:12.203Z,100.00
2023-04-08T22:25:45.456Z,100.00
2023-04-08T22:28:17.755Z,100.00
2023-04-08T22:30:50.138Z,100.00
2023-04-08T22:33:22.511Z,100.00
2023-04-08T22:35:57.344Z,100.00
2023-04-08T22:38:30.515Z,100.00
2023-04-08T22:41:02.937Z,100.00
2023-04-08T22:43:35.190Z,100.00
2023-04-08T22:46:07.591Z,100.00
2023-04-08T22:48:40.372Z,100.00
2023-04-08T22:51:13.346Z,100.00
2023-04-08T22:53:45.948Z,100.00
2023-04-08T22:56:18.208Z,100.00
2023-04-08T22:58:50.827Z,100.00
2023-04-08T23:01:23.353Z,100.00
2023-04-08T23:03:55.689Z,100.00
2023-04-08T23:06:28.736Z,100.00
2023-04-08T23:09:01.416Z,100.00
2023-04-08T23:11:33.967Z,100.00
2023-04-08T23:14:06.326Z,100.00
2023-04-08T23:16:38.735Z,100.00
2023-04-08T23:19:11.157Z,100.00
2023-04-08T23:21:44.529Z,100.00
2023-04-08T23:24:16.954Z,100.00
2023-04-08T23:26:49.485Z,100.00
2023-04-08T23:29:21.888Z,100.00
2023-04-08T23:31:54.532Z,100.00
2023-04-08T23:34:27.074Z,100.00
2023-04-08T23:37:00.300Z,100.00
2023-04-08T23:39:32.700Z,100.00
2023-04-08T23:42:05.340Z,100.00
2023-04-08T23:44:37.762Z,100.00
2023-04-08T23:47:10.156Z,100.00
2023-04-08T23:49:42.422Z,100.00
2023-04-08T23:52:15.526Z,100.00
2023-04-08T23:54:50.089Z,100.00
2023-04-08T23:57:22.492Z,100.00
2023-04-08T23:59:54.819Z,100.00
